sensor_id;sensor_type;location;lat;lon;timestamp;P1;durP1;ratioP1;P2;durP2;ratioP2
78443;SDS011;67739;52.986;8.894;2023-04-15T00:02:04;9.57;;;4.05;;
78443;SDS011;67739;52.986;8.894;2023-04-15T00:04:38;11.27;;;4.72;;
78443;SDS011;67739;52.986;8.894;2023-04-15T00:07:03;10.48;;;4.82;;
78443;SDS011;67739;52.986;8.894;2023-04-15T00:09:29;11.05;;;4.88;;
78443;SDS011;67739;52.986;8.894;2023-04-15T00:11:54;11.63;;;4.57;;
78443;SDS011;67739;52.986;8.894;2023-04-15T00:14:19;10.40;;;4.65;;
78443;SDS011;67739;52.986;8.894;2023-04-15T00:16:45;11.30;;;5.10;;
78443;SDS011;67739;52.986;8.894;2023-04-15T00:19:10;10.77;;;5.78;;
78443;SDS011;67739;52.986;8.894;2023-04-15T00:21:36;12.30;;;5.50;;
78443;SDS011;67739;52.986;8.894;2023-04-15T00:24:01;11.32;;;5.40;;
78443;SDS011;67739;52.986;8.894;2023-04-15T00:26:27;13.02;;;5.55;;
78443;SDS011;67739;52.986;8.894;2023-04-15T00:28:53;13.10;;;6.47;;
78443;SDS011;67739;52.986;8.894;2023-04-15T00:31:18;14.73;;;6.50;;
78443;SDS011;67739;52.986;8.894;2023-04-15T00:33:44;13.38;;;6.97;;
78443;SDS011;67739;52.986;8.894;2023-04-15T00:36:09;13.20;;;5.90;;
78443;SDS011;67739;52.986;8.894;2023-04-15T00:38:36;12.48;;;5.57;;
78443;SDS011;67739;52.986;8.894;2023-04-15T00:41:02;13.95;;;6.43;;
78443;SDS011;67739;52.986;8.894;2023-04-15T00:43:30;13.98;;;6.25;;
78443;SDS011;67739;52.986;8.894;2023-04-15T00:45:55;15.25;;;6.78;;
78443;SDS011;67739;52.986;8.894;2023-04-15T00:48:23;12.35;;;5.78;;
78443;SDS011;67739;52.986;8.894;2023-04-15T00:50:50;14.23;;;7.03;;
78443;SDS011;67739;52.986;8.894;2023-04-15T00:53:15;13.38;;;6.93;;
78443;SDS011;67739;52.986;8.894;2023-04-15T00:55:41;13.93;;;6.88;;
78443;SDS011;67739;52.986;8.894;2023-04-15T00:58:06;12.70;;;5.90;;
78443;SDS011;67739;52.986;8.894;2023-04-15T01:00:32;14.63;;;7.25;;
78443;SDS011;67739;52.986;8.894;2023-04-15T01:02:58;13.70;;;7.72;;
78443;SDS011;67739;52.986;8.894;2023-04-15T01:05:23;12.07;;;6.50;;
78443;SDS011;67739;52.986;8.894;2023-04-15T01:07:49;13.27;;;6.78;;
78443;SDS011;67739;52.986;8.894;2023-04-15T01:10:14;13.85;;;6.78;;
78443;SDS011;67739;52.986;8.894;2023-04-15T01:12:40;14.90;;;7.45;;
78443;SDS011;67739;52.986;8.894;2023-04-15T01:15:06;14.98;;;7.85;;
78443;SDS011;67739;52.986;8.894;2023-04-15T01:17:33;14.25;;;6.60;;
78443;SDS011;67739;52.986;8.894;2023-04-15T01:19:59;14.38;;;6.90;;
78443;SDS011;67739;52.986;8.894;2023-04-15T01:22:24;16.30;;;8.32;;
78443;SDS011;67739;52.986;8.894;2023-04-15T01:24:54;13.95;;;7.20;;
78443;SDS011;67739;52.986;8.894;2023-04-15T01:27:26;15.77;;;7.07;;
78443;SDS011;67739;52.986;8.894;2023-04-15T01:29:51;16.05;;;8.77;;
78443;SDS011;67739;52.986;8.894;2023-04-15T01:32:17;9.85;;;4.43;;
78443;SDS011;67739;52.986;8.894;2023-04-15T01:34:43;11.23;;;5.40;;
78443;SDS011;67739;52.986;8.894;2023-04-15T01:37:08;15.95;;;6.85;;
78443;SDS011;67739;52.986;8.894;2023-04-15T01:39:33;14.65;;;6.13;;
78443;SDS011;67739;52.986;8.894;2023-04-15T01:41:59;12.25;;;5.50;;
78443;SDS011;67739;52.986;8.894;2023-04-15T01:44:24;17.17;;;7.35;;
78443;SDS011;67739;52.986;8.894;2023-04-15T01:46:50;14.85;;;6.95;;
78443;SDS011;67739;52.986;8.894;2023-04-15T01:49:15;14.55;;;6.07;;
78443;SDS011;67739;52.986;8.894;2023-04-15T01:51:41;14.68;;;6.78;;
78443;SDS011;67739;52.986;8.894;2023-04-15T01:54:06;16.92;;;7.72;;
78443;SDS011;67739;52.986;8.894;2023-04-15T01:56:31;14.32;;;7.88;;
78443;SDS011;67739;52.986;8.894;2023-04-15T01:58:57;15.20;;;7.28;;
78443;SDS011;67739;52.986;8.894;2023-04-15T02:01:25;14.57;;;7.00;;
78443;SDS011;67739;52.986;8.894;2023-04-15T02:03:51;14.57;;;7.80;;
78443;SDS011;67739;52.986;8.894;2023-04-15T02:06:16;15.07;;;6.38;;
78443;SDS011;67739;52.986;8.894;2023-04-15T02:08:42;14.30;;;6.50;;
78443;SDS011;67739;52.986;8.894;2023-04-15T02:11:08;14.52;;;6.28;;
78443;SDS011;67739;52.986;8.894;2023-04-15T02:13:33;15.48;;;6.68;;
78443;SDS011;67739;52.986;8.894;2023-04-15T02:15:58;10.95;;;6.13;;
78443;SDS011;67739;52.986;8.894;2023-04-15T02:18:24;12.80;;;5.78;;
78443;SDS011;67739;52.986;8.894;2023-04-15T02:20:52;10.27;;;6.10;;
78443;SDS011;67739;52.986;8.894;2023-04-15T02:23:18;14.15;;;5.43;;
78443;SDS011;67739;52.986;8.894;2023-04-15T02:25:43;15.10;;;6.55;;
78443;SDS011;67739;52.986;8.894;2023-04-15T02:28:08;13.68;;;6.68;;
78443;SDS011;67739;52.986;8.894;2023-04-15T02:30:34;12.02;;;5.32;;
78443;SDS011;67739;52.986;8.894;2023-04-15T02:33:00;12.73;;;6.53;;
78443;SDS011;67739;52.986;8.894;2023-04-15T02:35:25;11.70;;;4.45;;
78443;SDS011;67739;52.986;8.894;2023-04-15T02:37:51;8.30;;;2.65;;
78443;SDS011;67739;52.986;8.894;2023-04-15T02:40:16;6.93;;;1.70;;
78443;SDS011;67739;52.986;8.894;2023-04-15T02:42:42;8.52;;;3.38;;
78443;SDS011;67739;52.986;8.894;2023-04-15T02:45:08;6.50;;;3.95;;
78443;SDS011;67739;52.986;8.894;2023-04-15T02:47:36;2.40;;;0.95;;
78443;SDS011;67739;52.986;8.894;2023-04-15T02:50:02;4.85;;;2.53;;
78443;SDS011;67739;52.986;8.894;2023-04-15T02:52:27;5.18;;;2.35;;
78443;SDS011;67739;52.986;8.894;2023-04-15T02:54:53;4.18;;;2.10;;
78443;SDS011;67739;52.986;8.894;2023-04-15T02:57:24;2.15;;;0.95;;
78443;SDS011;67739;52.986;8.894;2023-04-15T02:59:50;1.35;;;0.47;;
78443;SDS011;67739;52.986;8.894;2023-04-15T03:02:15;1.88;;;0.73;;
78443;SDS011;67739;52.986;8.894;2023-04-15T03:04:40;1.10;;;0.55;;
78443;SDS011;67739;52.986;8.894;2023-04-15T03:07:06;2.00;;;1.42;;
78443;SDS011;67739;52.986;8.894;2023-04-15T03:09:31;3.50;;;1.27;;
78443;SDS011;67739;52.986;8.894;2023-04-15T03:11:57;5.47;;;0.85;;
78443;SDS011;67739;52.986;8.894;2023-04-15T03:14:22;0.93;;;0.63;;
78443;SDS011;67739;52.986;8.894;2023-04-15T03:16:47;3.10;;;1.08;;
78443;SDS011;67739;52.986;8.894;2023-04-15T03:19:14;1.15;;;0.43;;
78443;SDS011;67739;52.986;8.894;2023-04-15T03:21:39;0.05;;;0.00;;
78443;SDS011;67739;52.986;8.894;2023-04-15T03:24:05;1.17;;;0.73;;
78443;SDS011;67739;52.986;8.894;2023-04-15T03:26:30;3.70;;;2.35;;
78443;SDS011;67739;52.986;8.894;2023-04-15T03:28:56;1.45;;;0.68;;
78443;SDS011;67739;52.986;8.894;2023-04-15T03:31:22;1.13;;;0.30;;
78443;SDS011;67739;52.986;8.894;2023-04-15T03:33:48;6.40;;;2.22;;
78443;SDS011;67739;52.986;8.894;2023-04-15T03:36:13;3.15;;;2.10;;
78443;SDS011;67739;52.986;8.894;2023-04-15T03:38:39;1.80;;;1.45;;
78443;SDS011;67739;52.986;8.894;2023-04-15T03:41:05;2.55;;;0.93;;
78443;SDS011;67739;52.986;8.894;2023-04-15T03:43:31;4.72;;;1.50;;
78443;SDS011;67739;52.986;8.894;2023-04-15T03:45:56;1.30;;;0.55;;
78443;SDS011;67739;52.986;8.894;2023-04-15T03:48:21;4.30;;;1.70;;
78443;SDS011;67739;52.986;8.894;2023-04-15T03:50:47;2.05;;;1.17;;
78443;SDS011;67739;52.986;8.894;2023-04-15T03:53:15;4.95;;;1.60;;
78443;SDS011;67739;52.986;8.894;2023-04-15T03:55:40;2.60;;;1.60;;
78443;SDS011;67739;52.986;8.894;2023-04-15T03:58:05;2.05;;;1.52;;
78443;SDS011;67739;52.986;8.894;2023-04-15T04:00:31;2.63;;;1.48;;
78443;SDS011;67739;52.986;8.894;2023-04-15T04:02:56;1.40;;;0.65;;
78443;SDS011;67739;52.986;8.894;2023-04-15T04:05:22;2.38;;;0.98;;
78443;SDS011;67739;52.986;8.894;2023-04-15T04:07:47;3.72;;;2.10;;
78443;SDS011;67739;52.986;8.894;2023-04-15T04:10:13;3.70;;;1.58;;
78443;SDS011;67739;52.986;8.894;2023-04-15T04:12:38;0.57;;;0.30;;
78443;SDS011;67739;52.986;8.894;2023-04-15T04:15:04;5.57;;;2.28;;
78443;SDS011;67739;52.986;8.894;2023-04-15T04:17:30;3.60;;;2.03;;
78443;SDS011;67739;52.986;8.894;2023-04-15T04:19:56;2.40;;;0.90;;
78443;SDS011;67739;52.986;8.894;2023-04-15T04:22:21;0.63;;;0.30;;
78443;SDS011;67739;52.986;8.894;2023-04-15T04:24:48;1.33;;;0.65;;
78443;SDS011;67739;52.986;8.894;2023-04-15T04:27:16;5.15;;;1.85;;
78443;SDS011;67739;52.986;8.894;2023-04-15T04:29:41;2.60;;;1.33;;
78443;SDS011;67739;52.986;8.894;2023-04-15T04:32:07;0.93;;;0.32;;
78443;SDS011;67739;52.986;8.894;2023-04-15T04:34:35;4.72;;;2.15;;
78443;SDS011;67739;52.986;8.894;2023-04-15T04:37:00;3.25;;;1.30;;
78443;SDS011;67739;52.986;8.894;2023-04-15T04:39:25;1.88;;;1.15;;
78443;SDS011;67739;52.986;8.894;2023-04-15T04:41:51;4.43;;;2.10;;
78443;SDS011;67739;52.986;8.894;2023-04-15T04:44:16;3.38;;;1.13;;
78443;SDS011;67739;52.986;8.894;2023-04-15T04:46:42;2.45;;;0.82;;
78443;SDS011;67739;52.986;8.894;2023-04-15T04:49:07;0.88;;;0.45;;
78443;SDS011;67739;52.986;8.894;2023-04-15T04:51:32;2.08;;;1.52;;
78443;SDS011;67739;52.986;8.894;2023-04-15T04:53:58;3.17;;;0.95;;
78443;SDS011;67739;52.986;8.894;2023-04-15T04:56:26;3.60;;;1.27;;
78443;SDS011;67739;52.986;8.894;2023-04-15T04:58:52;1.20;;;0.47;;
78443;SDS011;67739;52.986;8.894;2023-04-15T05:01:17;3.92;;;1.70;;
78443;SDS011;67739;52.986;8.894;2023-04-15T05:03:43;8.15;;;1.92;;
78443;SDS011;67739;52.986;8.894;2023-04-15T05:06:08;2.45;;;1.38;;
78443;SDS011;67739;52.986;8.894;2023-04-15T05:08:34;2.85;;;0.88;;
78443;SDS011;67739;52.986;8.894;2023-04-15T05:10:59;7.15;;;2.42;;
78443;SDS011;67739;52.986;8.894;2023-04-15T05:13:27;1.23;;;0.60;;
78443;SDS011;67739;52.986;8.894;2023-04-15T05:15:53;1.83;;;1.13;;
78443;SDS011;67739;52.986;8.894;2023-04-15T05:18:19;7.15;;;1.60;;
78443;SDS011;67739;52.986;8.894;2023-04-15T05:20:44;4.05;;;2.38;;
78443;SDS011;67739;52.986;8.894;2023-04-15T05:23:10;4.22;;;2.83;;
78443;SDS011;67739;52.986;8.894;2023-04-15T05:25:35;3.95;;;1.92;;
78443;SDS011;67739;52.986;8.894;2023-04-15T05:28:01;3.63;;;1.83;;
78443;SDS011;67739;52.986;8.894;2023-04-15T05:30:26;5.32;;;1.40;;
78443;SDS011;67739;52.986;8.894;2023-04-15T05:32:51;5.45;;;1.90;;
78443;SDS011;67739;52.986;8.894;2023-04-15T05:35:17;4.43;;;1.60;;
78443;SDS011;67739;52.986;8.894;2023-04-15T05:37:43;4.18;;;0.93;;
78443;SDS011;67739;52.986;8.894;2023-04-15T05:40:11;1.75;;;1.33;;
78443;SDS011;67739;52.986;8.894;2023-04-15T05:42:36;10.30;;;3.25;;
78443;SDS011;67739;52.986;8.894;2023-04-15T05:45:02;2.53;;;1.30;;
78443;SDS011;67739;52.986;8.894;2023-04-15T05:47:29;2.05;;;1.02;;
78443;SDS011;67739;52.986;8.894;2023-04-15T05:49:55;1.42;;;0.80;;
78443;SDS011;67739;52.986;8.894;2023-04-15T05:52:22;2.65;;;1.02;;
78443;SDS011;67739;52.986;8.894;2023-04-15T05:54:48;2.72;;;1.40;;
78443;SDS011;67739;52.986;8.894;2023-04-15T05:57:16;2.00;;;1.55;;
78443;SDS011;67739;52.986;8.894;2023-04-15T05:59:42;4.30;;;1.50;;
78443;SDS011;67739;52.986;8.894;2023-04-15T06:02:08;3.00;;;1.98;;
78443;SDS011;67739;52.986;8.894;2023-04-15T06:04:34;4.82;;;3.33;;
78443;SDS011;67739;52.986;8.894;2023-04-15T06:06:59;2.60;;;1.10;;
78443;SDS011;67739;52.986;8.894;2023-04-15T06:09:28;4.50;;;1.98;;
78443;SDS011;67739;52.986;8.894;2023-04-15T06:11:53;1.60;;;1.27;;
78443;SDS011;67739;52.986;8.894;2023-04-15T06:14:19;4.93;;;2.33;;
78443;SDS011;67739;52.986;8.894;2023-04-15T06:16:44;2.13;;;1.42;;
78443;SDS011;67739;52.986;8.894;2023-04-15T06:19:10;0.77;;;0.30;;
78443;SDS011;67739;52.986;8.894;2023-04-15T06:21:36;0.90;;;0.38;;
78443;SDS011;67739;52.986;8.894;2023-04-15T06:24:02;4.65;;;2.25;;
78443;SDS011;67739;52.986;8.894;2023-04-15T06:26:27;3.03;;;1.70;;
78443;SDS011;67739;52.986;8.894;2023-04-15T06:28:53;4.72;;;2.00;;
78443;SDS011;67739;52.986;8.894;2023-04-15T06:31:18;1.88;;;0.85;;
78443;SDS011;67739;52.986;8.894;2023-04-15T06:33:43;8.73;;;3.17;;
78443;SDS011;67739;52.986;8.894;2023-04-15T06:36:09;6.10;;;3.13;;
78443;SDS011;67739;52.986;8.894;2023-04-15T06:38:35;2.63;;;1.35;;
78443;SDS011;67739;52.986;8.894;2023-04-15T06:41:00;5.43;;;2.40;;
78443;SDS011;67739;52.986;8.894;2023-04-15T06:43:26;2.05;;;1.80;;
78443;SDS011;67739;52.986;8.894;2023-04-15T06:45:52;3.40;;;0.82;;
78443;SDS011;67739;52.986;8.894;2023-04-15T06:48:18;2.30;;;1.30;;
78443;SDS011;67739;52.986;8.894;2023-04-15T06:50:43;1.60;;;0.60;;
78443;SDS011;67739;52.986;8.894;2023-04-15T06:53:08;5.82;;;2.65;;
78443;SDS011;67739;52.986;8.894;2023-04-15T06:55:34;3.60;;;1.35;;
78443;SDS011;67739;52.986;8.894;2023-04-15T06:57:59;3.05;;;0.65;;
78443;SDS011;67739;52.986;8.894;2023-04-15T07:00:24;2.95;;;2.00;;
78443;SDS011;67739;52.986;8.894;2023-04-15T07:02:50;4.47;;;1.92;;
78443;SDS011;67739;52.986;8.894;2023-04-15T07:05:15;2.58;;;1.25;;
78443;SDS011;67739;52.986;8.894;2023-04-15T07:07:41;1.75;;;0.50;;
78443;SDS011;67739;52.986;8.894;2023-04-15T07:10:06;1.95;;;1.00;;
78443;SDS011;67739;52.986;8.894;2023-04-15T07:12:32;3.92;;;1.27;;
78443;SDS011;67739;52.986;8.894;2023-04-15T07:14:59;2.50;;;1.20;;
78443;SDS011;67739;52.986;8.894;2023-04-15T07:17:24;2.97;;;1.13;;
78443;SDS011;67739;52.986;8.894;2023-04-15T07:19:49;0.80;;;0.70;;
78443;SDS011;67739;52.986;8.894;2023-04-15T07:22:15;3.78;;;1.23;;
78443;SDS011;67739;52.986;8.894;2023-04-15T07:24:40;4.50;;;2.72;;
78443;SDS011;67739;52.986;8.894;2023-04-15T07:27:06;1.73;;;0.73;;
78443;SDS011;67739;52.986;8.894;2023-04-15T07:29:32;6.32;;;3.92;;
78443;SDS011;67739;52.986;8.894;2023-04-15T07:31:57;1.67;;;1.17;;
78443;SDS011;67739;52.986;8.894;2023-04-15T07:34:23;2.03;;;0.88;;
78443;SDS011;67739;52.986;8.894;2023-04-15T07:36:48;3.20;;;0.98;;
78443;SDS011;67739;52.986;8.894;2023-04-15T07:39:15;2.15;;;0.80;;
78443;SDS011;67739;52.986;8.894;2023-04-15T07:41:43;1.20;;;0.43;;
78443;SDS011;67739;52.986;8.894;2023-04-15T07:44:09;2.70;;;0.82;;
78443;SDS011;67739;52.986;8.894;2023-04-15T07:46:35;3.47;;;1.88;;
78443;SDS011;67739;52.986;8.894;2023-04-15T07:49:02;3.72;;;1.67;;
78443;SDS011;67739;52.986;8.894;2023-04-15T07:51:27;3.25;;;1.38;;
78443;SDS011;67739;52.986;8.894;2023-04-15T07:53:53;3.72;;;1.42;;
78443;SDS011;67739;52.986;8.894;2023-04-15T07:56:19;2.03;;;1.38;;
78443;SDS011;67739;52.986;8.894;2023-04-15T07:58:44;1.02;;;0.55;;
78443;SDS011;67739;52.986;8.894;2023-04-15T08:01:10;2.58;;;0.80;;
78443;SDS011;67739;52.986;8.894;2023-04-15T08:03:35;4.63;;;1.75;;
78443;SDS011;67739;52.986;8.894;2023-04-15T08:06:01;0.95;;;0.30;;
78443;SDS011;67739;52.986;8.894;2023-04-15T08:08:26;3.50;;;1.65;;
78443;SDS011;67739;52.986;8.894;2023-04-15T08:10:52;1.95;;;1.08;;
78443;SDS011;67739;52.986;8.894;2023-04-15T08:13:17;4.68;;;1.73;;
78443;SDS011;67739;52.986;8.894;2023-04-15T08:15:43;3.53;;;1.98;;
78443;SDS011;67739;52.986;8.894;2023-04-15T08:18:08;1.70;;;0.75;;
78443;SDS011;67739;52.986;8.894;2023-04-15T08:20:35;0.50;;;0.30;;
78443;SDS011;67739;52.986;8.894;2023-04-15T08:23:01;5.13;;;2.67;;
78443;SDS011;67739;52.986;8.894;2023-04-15T08:25:27;2.25;;;1.38;;
78443;SDS011;67739;52.986;8.894;2023-04-15T08:27:54;2.15;;;0.68;;
78443;SDS011;67739;52.986;8.894;2023-04-15T08:30:23;2.10;;;0.45;;
78443;SDS011;67739;52.986;8.894;2023-04-15T08:32:49;3.30;;;1.92;;
78443;SDS011;67739;52.986;8.894;2023-04-15T08:35:15;4.28;;;1.38;;
78443;SDS011;67739;52.986;8.894;2023-04-15T08:37:40;2.78;;;1.50;;
78443;SDS011;67739;52.986;8.894;2023-04-15T08:40:06;3.08;;;1.30;;
78443;SDS011;67739;52.986;8.894;2023-04-15T08:42:36;1.02;;;0.30;;
78443;SDS011;67739;52.986;8.894;2023-04-15T08:45:08;4.03;;;1.33;;
78443;SDS011;67739;52.986;8.894;2023-04-15T08:47:34;2.22;;;1.48;;
78443;SDS011;67739;52.986;8.894;2023-04-15T08:50:02;6.05;;;1.83;;
78443;SDS011;67739;52.986;8.894;2023-04-15T08:52:29;3.70;;;1.38;;
78443;SDS011;67739;52.986;8.894;2023-04-15T08:54:55;3.63;;;1.30;;
78443;SDS011;67739;52.986;8.894;2023-04-15T08:57:25;1.40;;;0.65;;
78443;SDS011;67739;52.986;8.894;2023-04-15T08:59:52;2.63;;;1.42;;
78443;SDS011;67739;52.986;8.894;2023-04-15T09:02:20;2.53;;;1.65;;
78443;SDS011;67739;52.986;8.894;2023-04-15T09:04:47;3.30;;;1.58;;
78443;SDS011;67739;52.986;8.894;2023-04-15T09:07:12;2.90;;;1.40;;
78443;SDS011;67739;52.986;8.894;2023-04-15T09:09:37;4.55;;;2.33;;
78443;SDS011;67739;52.986;8.894;2023-04-15T09:12:04;3.70;;;1.10;;
78443;SDS011;67739;52.986;8.894;2023-04-15T09:14:29;5.30;;;2.88;;
78443;SDS011;67739;52.986;8.894;2023-04-15T09:16:59;5.50;;;2.20;;
78443;SDS011;67739;52.986;8.894;2023-04-15T09:19:26;5.05;;;1.50;;
78443;SDS011;67739;52.986;8.894;2023-04-15T09:21:55;2.63;;;1.17;;
78443;SDS011;67739;52.986;8.894;2023-04-15T09:24:21;1.63;;;1.08;;
78443;SDS011;67739;52.986;8.894;2023-04-15T09:26:47;6.03;;;2.47;;
78443;SDS011;67739;52.986;8.894;2023-04-15T09:29:16;4.15;;;1.30;;
78443;SDS011;67739;52.986;8.894;2023-04-15T09:31:42;5.20;;;1.85;;
78443;SDS011;67739;52.986;8.894;2023-04-15T09:34:07;1.45;;;0.52;;
78443;SDS011;67739;52.986;8.894;2023-04-15T09:36:52;1.00;;;0.30;;
78443;SDS011;67739;52.986;8.894;2023-04-15T09:39:21;2.30;;;1.30;;
78443;SDS011;67739;52.986;8.894;2023-04-15T09:41:47;0.70;;;0.50;;
78443;SDS011;67739;52.986;8.894;2023-04-15T09:44:28;4.65;;;2.25;;
78443;SDS011;67739;52.986;8.894;2023-04-15T09:46:54;2.92;;;1.75;;
78443;SDS011;67739;52.986;8.894;2023-04-15T09:49:19;3.88;;;1.65;;
78443;SDS011;67739;52.986;8.894;2023-04-15T09:51:45;3.33;;;0.95;;
78443;SDS011;67739;52.986;8.894;2023-04-15T09:54:11;3.78;;;1.33;;
78443;SDS011;67739;52.986;8.894;2023-04-15T09:56:37;3.63;;;1.40;;
78443;SDS011;67739;52.986;8.894;2023-04-15T09:59:06;2.67;;;0.50;;
78443;SDS011;67739;52.986;8.894;2023-04-15T10:01:32;1.27;;;0.57;;
78443;SDS011;67739;52.986;8.894;2023-04-15T10:04:05;1.35;;;0.93;;
78443;SDS011;67739;52.986;8.894;2023-04-15T10:06:31;1.85;;;0.57;;
78443;SDS011;67739;52.986;8.894;2023-04-15T10:08:57;1.42;;;0.40;;
78443;SDS011;67739;52.986;8.894;2023-04-15T10:11:23;3.85;;;1.65;;
78443;SDS011;67739;52.986;8.894;2023-04-15T10:13:52;5.32;;;2.05;;
78443;SDS011;67739;52.986;8.894;2023-04-15T10:16:19;1.10;;;0.35;;
78443;SDS011;67739;52.986;8.894;2023-04-15T10:18:49;1.83;;;0.85;;
78443;SDS011;67739;52.986;8.894;2023-04-15T10:21:18;5.13;;;2.88;;
78443;SDS011;67739;52.986;8.894;2023-04-15T10:23:46;3.92;;;1.55;;
78443;SDS011;67739;52.986;8.894;2023-04-15T10:26:12;4.32;;;0.98;;
78443;SDS011;67739;52.986;8.894;2023-04-15T10:28:41;4.38;;;2.53;;
78443;SDS011;67739;52.986;8.894;2023-04-15T10:31:07;4.55;;;1.70;;
78443;SDS011;67739;52.986;8.894;2023-04-15T10:33:36;2.88;;;1.38;;
78443;SDS011;67739;52.986;8.894;2023-04-15T10:36:03;3.50;;;1.33;;
78443;SDS011;67739;52.986;8.894;2023-04-15T10:38:36;3.22;;;1.08;;
78443;SDS011;67739;52.986;8.894;2023-04-15T10:41:12;4.18;;;2.22;;
78443;SDS011;67739;52.986;8.894;2023-04-15T10:44:01;3.22;;;1.17;;
78443;SDS011;67739;52.986;8.894;2023-04-15T10:46:34;3.13;;;1.63;;
78443;SDS011;67739;52.986;8.894;2023-04-15T10:49:14;8.63;;;2.97;;
78443;SDS011;67739;52.986;8.894;2023-04-15T10:51:44;2.30;;;1.55;;
78443;SDS011;67739;52.986;8.894;2023-04-15T10:54:15;1.40;;;0.75;;
78443;SDS011;67739;52.986;8.894;2023-04-15T11:01:59;4.43;;;1.70;;
78443;SDS011;67739;52.986;8.894;2023-04-15T11:07:36;5.78;;;2.38;;
78443;SDS011;67739;52.986;8.894;2023-04-15T11:12:38;3.53;;;1.38;;
78443;SDS011;67739;52.986;8.894;2023-04-15T11:17:56;4.53;;;1.48;;
78443;SDS011;67739;52.986;8.894;2023-04-15T11:20:46;5.22;;;2.45;;
78443;SDS011;67739;52.986;8.894;2023-04-15T11:23:14;9.13;;;3.80;;
78443;SDS011;67739;52.986;8.894;2023-04-15T11:25:42;7.22;;;3.17;;
78443;SDS011;67739;52.986;8.894;2023-04-15T11:28:07;1.95;;;0.60;;
78443;SDS011;67739;52.986;8.894;2023-04-15T11:30:33;5.90;;;2.70;;
78443;SDS011;67739;52.986;8.894;2023-04-15T11:33:00;5.63;;;3.17;;
78443;SDS011;67739;52.986;8.894;2023-04-15T11:35:27;6.22;;;2.97;;
78443;SDS011;67739;52.986;8.894;2023-04-15T11:37:53;7.47;;;3.17;;
78443;SDS011;67739;52.986;8.894;2023-04-15T11:40:22;7.45;;;3.15;;
78443;SDS011;67739;52.986;8.894;2023-04-15T11:46:09;8.13;;;4.55;;
78443;SDS011;67739;52.986;8.894;2023-04-15T11:48:28;5.40;;;1.67;;
78443;SDS011;67739;52.986;8.894;2023-04-15T11:50:59;4.43;;;2.08;;
78443;SDS011;67739;52.986;8.894;2023-04-15T11:53:36;4.82;;;2.17;;
78443;SDS011;67739;52.986;8.894;2023-04-15T11:56:02;8.45;;;4.85;;
78443;SDS011;67739;52.986;8.894;2023-04-15T11:58:28;10.07;;;5.07;;
78443;SDS011;67739;52.986;8.894;2023-04-15T12:00:54;6.43;;;3.60;;
78443;SDS011;67739;52.986;8.894;2023-04-15T12:03:25;8.13;;;3.80;;
78443;SDS011;67739;52.986;8.894;2023-04-15T12:11:46;6.20;;;2.97;;
78443;SDS011;67739;52.986;8.894;2023-04-15T12:14:32;8.98;;;3.90;;
78443;SDS011;67739;52.986;8.894;2023-04-15T12:17:01;5.65;;;2.42;;
78443;SDS011;67739;52.986;8.894;2023-04-15T12:19:29;8.50;;;4.53;;
78443;SDS011;67739;52.986;8.894;2023-04-15T12:22:11;5.85;;;2.80;;
78443;SDS011;67739;52.986;8.894;2023-04-15T12:24:38;9.95;;;4.15;;
78443;SDS011;67739;52.986;8.894;2023-04-15T12:29:30;13.23;;;6.28;;
78443;SDS011;67739;52.986;8.894;2023-04-15T12:31:57;4.35;;;2.55;;
78443;SDS011;67739;52.986;8.894;2023-04-15T12:34:31;9.48;;;4.30;;
78443;SDS011;67739;52.986;8.894;2023-04-15T12:36:59;9.88;;;4.15;;
78443;SDS011;67739;52.986;8.894;2023-04-15T12:39:30;8.55;;;5.07;;
78443;SDS011;67739;52.986;8.894;2023-04-15T12:41:58;8.70;;;4.65;;
78443;SDS011;67739;52.986;8.894;2023-04-15T12:44:24;9.05;;;4.53;;
78443;SDS011;67739;52.986;8.894;2023-04-15T12:46:50;10.15;;;5.25;;
78443;SDS011;67739;52.986;8.894;2023-04-15T12:49:17;10.27;;;4.43;;
78443;SDS011;67739;52.986;8.894;2023-04-15T12:51:49;4.32;;;2.20;;
78443;SDS011;67739;52.986;8.894;2023-04-15T12:54:16;7.25;;;3.38;;
78443;SDS011;67739;52.986;8.894;2023-04-15T12:56:41;9.70;;;3.78;;
78443;SDS011;67739;52.986;8.894;2023-04-15T12:59:07;13.18;;;6.97;;
78443;SDS011;67739;52.986;8.894;2023-04-15T13:01:33;7.03;;;4.25;;
78443;SDS011;67739;52.986;8.894;2023-04-15T13:03:58;7.05;;;4.50;;
78443;SDS011;67739;52.986;8.894;2023-04-15T13:06:23;10.43;;;4.13;;
78443;SDS011;67739;52.986;8.894;2023-04-15T13:08:49;8.07;;;4.13;;
78443;SDS011;67739;52.986;8.894;2023-04-15T13:11:14;3.83;;;2.90;;
78443;SDS011;67739;52.986;8.894;2023-04-15T13:13:41;6.85;;;4.05;;
78443;SDS011;67739;52.986;8.894;2023-04-15T13:16:06;4.63;;;1.63;;
78443;SDS011;67739;52.986;8.894;2023-04-15T13:18:32;5.15;;;2.97;;
78443;SDS011;67739;52.986;8.894;2023-04-15T13:20:58;8.52;;;3.22;;
78443;SDS011;67739;52.986;8.894;2023-04-15T13:23:24;13.38;;;6.43;;
78443;SDS011;67739;52.986;8.894;2023-04-15T13:25:50;9.30;;;5.68;;
78443;SDS011;67739;52.986;8.894;2023-04-15T13:28:15;7.30;;;4.80;;
78443;SDS011;67739;52.986;8.894;2023-04-15T13:30:40;5.63;;;2.90;;
78443;SDS011;67739;52.986;8.894;2023-04-15T13:33:06;8.52;;;4.07;;
78443;SDS011;67739;52.986;8.894;2023-04-15T13:35:32;8.13;;;3.72;;
78443;SDS011;67739;52.986;8.894;2023-04-15T13:37:57;3.85;;;1.88;;
78443;SDS011;67739;52.986;8.894;2023-04-15T13:40:23;8.00;;;4.78;;
78443;SDS011;67739;52.986;8.894;2023-04-15T13:42:49;10.60;;;4.85;;
78443;SDS011;67739;52.986;8.894;2023-04-15T13:45:15;12.57;;;5.15;;
78443;SDS011;67739;52.986;8.894;2023-04-15T13:47:41;9.10;;;4.57;;
78443;SDS011;67739;52.986;8.894;2023-04-15T13:50:06;12.95;;;8.32;;
78443;SDS011;67739;52.986;8.894;2023-04-15T13:52:32;11.70;;;6.10;;
78443;SDS011;67739;52.986;8.894;2023-04-15T13:54:57;11.02;;;7.05;;
78443;SDS011;67739;52.986;8.894;2023-04-15T13:57:23;12.32;;;6.13;;
78443;SDS011;67739;52.986;8.894;2023-04-15T13:59:49;9.07;;;5.20;;
78443;SDS011;67739;52.986;8.894;2023-04-15T14:02:19;12.25;;;5.55;;
78443;SDS011;67739;52.986;8.894;2023-04-15T14:04:48;8.55;;;4.65;;
78443;SDS011;67739;52.986;8.894;2023-04-15T14:07:14;10.73;;;5.15;;
78443;SDS011;67739;52.986;8.894;2023-04-15T14:10:11;8.55;;;4.30;;
78443;SDS011;67739;52.986;8.894;2023-04-15T14:12:46;7.63;;;3.50;;
78443;SDS011;67739;52.986;8.894;2023-04-15T14:18:26;7.93;;;3.30;;
78443;SDS011;67739;52.986;8.894;2023-04-15T14:37:54;7.38;;;4.93;;
78443;SDS011;67739;52.986;8.894;2023-04-15T14:40:20;8.48;;;4.22;;
78443;SDS011;67739;52.986;8.894;2023-04-15T14:42:46;8.10;;;4.57;;
78443;SDS011;67739;52.986;8.894;2023-04-15T14:45:11;11.68;;;7.07;;
78443;SDS011;67739;52.986;8.894;2023-04-15T14:50:47;12.15;;;6.18;;
78443;SDS011;67739;52.986;8.894;2023-04-15T14:53:13;9.65;;;6.20;;
78443;SDS011;67739;52.986;8.894;2023-04-15T14:55:38;12.40;;;6.45;;
78443;SDS011;67739;52.986;8.894;2023-04-15T14:58:04;7.80;;;4.88;;
78443;SDS011;67739;52.986;8.894;2023-04-15T15:00:35;9.25;;;5.45;;
78443;SDS011;67739;52.986;8.894;2023-04-15T15:03:04;10.63;;;5.50;;
78443;SDS011;67739;52.986;8.894;2023-04-15T15:05:36;9.35;;;4.80;;
78443;SDS011;67739;52.986;8.894;2023-04-15T15:08:02;10.98;;;6.13;;
78443;SDS011;67739;52.986;8.894;2023-04-15T15:10:27;10.88;;;6.38;;
78443;SDS011;67739;52.986;8.894;2023-04-15T15:12:53;7.93;;;5.47;;
78443;SDS011;67739;52.986;8.894;2023-04-15T15:15:18;8.52;;;3.90;;
78443;SDS011;67739;52.986;8.894;2023-04-15T15:17:43;10.13;;;6.50;;
78443;SDS011;67739;52.986;8.894;2023-04-15T15:20:09;10.00;;;5.53;;
78443;SDS011;67739;52.986;8.894;2023-04-15T15:22:34;10.32;;;5.75;;
78443;SDS011;67739;52.986;8.894;2023-04-15T15:25:00;10.70;;;6.65;;
78443;SDS011;67739;52.986;8.894;2023-04-15T15:27:26;11.15;;;6.15;;
78443;SDS011;67739;52.986;8.894;2023-04-15T15:29:51;9.70;;;4.93;;
78443;SDS011;67739;52.986;8.894;2023-04-15T15:32:16;9.13;;;4.38;;